createdAt,value
2022-11-01T00:03:06.063Z,48.80
2022-11-01T00:08:28.484Z,48.00
2022-11-01T00:13:51.158Z,52.00
2022-11-01T00:19:13.762Z,49.00
2022-11-01T00:24:55.760Z,49.60
2022-11-01T00:30:18.237Z,48.10
2022-11-01T00:35:40.193Z,48.90
2022-11-01T00:41:04.742Z,47.40
2022-11-01T00:46:28.308Z,48.60
2022-11-01T00:51:52.434Z,47.80
2022-11-01T01:02:37.015Z,50.40
2022-11-01T01:07:59.874Z,49.40
2022-11-01T01:13:23.435Z,49.60
2022-11-01T01:18:45.514Z,49.60
2022-11-01T01:24:07.843Z,47.10
2022-11-01T01:29:30.393Z,43.90
2022-11-01T01:34:52.728Z,38.50
2022-11-01T01:40:14.679Z,33.60
2022-11-01T01:45:40.860Z,31.10
2022-11-01T01:51:10.319Z,31.50
2022-11-01T01:56:38.768Z,27.20
2022-11-01T02:02:00.971Z,15.90
2022-11-01T02:07:25.095Z,14.30
2022-11-01T02:12:51.785Z,14.20
2022-11-01T02:18:25.616Z,13.40
2022-11-01T02:24:02.928Z,12.10
2022-11-01T02:29:39.621Z,13.80
2022-11-01T02:35:20.579Z,13.60
2022-11-01T02:41:08.566Z,13.10
2022-11-01T02:46:59.166Z,13.70
2022-11-01T02:52:26.096Z,14.40
2022-11-01T02:57:49.431Z,13.80
2022-11-01T03:03:22.768Z,13.10
2022-11-01T03:08:49.854Z,13.30
2022-11-01T03:14:33.579Z,14.60
2022-11-01T03:20:47.484Z,14.40
2022-11-01T03:26:17.232Z,16.00
2022-11-01T03:31:41.125Z,17.20
2022-11-01T03:37:11.871Z,17.30
2022-11-01T03:42:37.523Z,18.30
2022-11-01T03:48:11.079Z,18.00
2022-11-01T03:53:40.953Z,17.00
2022-11-01T03:59:03.255Z,18.50
2022-11-01T04:04:25.283Z,17.50
2022-11-01T04:09:48.546Z,16.70
2022-11-01T04:15:30.283Z,16.10
2022-11-01T04:20:54.315Z,16.40
2022-11-01T04:26:22.393Z,15.70
2022-11-01T04:31:45.666Z,15.10
2022-11-01T04:37:09.012Z,14.00
2022-11-01T04:42:32.119Z,13.70
2022-11-01T04:48:23.198Z,12.10
2022-11-01T04:53:44.920Z,12.10
2022-11-01T04:59:07.481Z,11.70
2022-11-01T05:04:29.468Z,12.70
2022-11-01T05:09:52.104Z,10.80
2022-11-01T05:15:14.208Z,15.90
2022-11-01T05:20:35.750Z,21.70
2022-11-01T05:25:57.990Z,13.10
2022-11-01T05:31:20.775Z,11.60
2022-11-01T05:36:44.241Z,12.00
2022-11-01T05:42:06.034Z,9.20
2022-11-01T05:47:28.385Z,10.80
2022-11-01T05:52:50.702Z,10.20
2022-11-01T05:59:25.029Z,9.00
2022-11-01T06:06:40.159Z,9.10
2022-11-01T06:13:36.929Z,8.90
2022-11-01T06:20:36.467Z,7.70
2022-11-01T06:26:22.634Z,8.50
2022-11-01T06:31:54.321Z,8.80
2022-11-01T06:37:42.388Z,7.90
2022-11-01T06:43:26.445Z,7.80
2022-11-01T06:49:22.541Z,6.90
2022-11-01T06:55:29.685Z,7.30
2022-11-01T07:01:09.648Z,6.30
2022-11-01T07:06:58.330Z,7.20
2022-11-01T07:12:47.279Z,7.60
2022-11-01T07:18:32.494Z,7.00
2022-11-01T07:30:29.766Z,7.30
2022-11-01T07:36:05.597Z,7.60
2022-11-01T07:47:50.611Z,8.00
2022-11-01T07:53:35.877Z,10.00
2022-11-01T07:59:13.210Z,7.60
2022-11-01T08:05:01.633Z,7.20
2022-11-01T08:10:49.512Z,7.50
2022-11-01T08:22:35.215Z,7.10
2022-11-01T08:28:21.732Z,8.10
2022-11-01T08:53:16.254Z,6.80
2022-11-01T08:59:04.316Z,6.60
2022-11-01T09:11:23.456Z,7.00
2022-11-01T09:18:05.521Z,6.70
2022-11-01T09:24:49.182Z,6.40
2022-11-01T09:31:01.545Z,6.60
2022-11-01T10:07:58.545Z,7.40
2022-11-01T10:25:45.581Z,9.00
2022-11-01T10:38:03.892Z,9.50
2022-11-01T10:55:55.904Z,9.50
2022-11-01T11:08:45.588Z,9.00
2022-11-01T11:14:46.578Z,8.70
2022-11-01T11:34:59.179Z,9.00
2022-11-01T11:59:53.086Z,14.10
2022-11-01T12:06:00.556Z,10.80
2022-11-01T12:12:06.755Z,9.50
2022-11-01T12:17:58.199Z,9.30
2022-11-01T12:24:02.050Z,8.80
2022-11-01T12:30:31.320Z,9.20
2022-11-01T12:42:59.033Z,9.20
2022-11-01T13:08:12.670Z,8.20
2022-11-01T13:26:26.773Z,7.90
2022-11-01T13:32:29.594Z,7.60
2022-11-01T13:38:13.720Z,8.40
2022-11-01T13:43:58.895Z,8.90
2022-11-01T14:14:09.013Z,7.80
2022-11-01T14:28:18.330Z,7.80
2022-11-01T14:43:07.749Z,8.50
2022-11-01T15:04:52.571Z,8.00
2022-11-01T15:11:40.816Z,9.90
2022-11-01T15:18:00.153Z,9.80
2022-11-01T15:29:01.260Z,10.70
2022-11-01T15:34:51.102Z,11.00
2022-11-01T15:40:46.891Z,10.50
2022-11-01T15:46:12.826Z,11.30
2022-11-01T15:52:18.166Z,11.10
2022-11-01T16:05:32.290Z,11.90
2022-11-01T16:10:54.078Z,59.20
2022-11-01T16:16:16.784Z,33.20
2022-11-01T16:22:40.985Z,15.80
2022-11-01T16:29:29.503Z,22.90
2022-11-01T16:36:24.452Z,15.40
2022-11-01T16:43:07.073Z,15.50
2022-11-01T16:50:01.213Z,14.10
2022-11-01T17:04:03.798Z,18.70
2022-11-01T17:11:01.495Z,14.20
2022-11-01T17:16:44.898Z,15.00
2022-11-01T17:22:12.516Z,15.30
2022-11-01T17:27:33.810Z,15.20
2022-11-01T17:33:30.443Z,15.80
2022-11-01T17:38:51.623Z,15.50
2022-11-01T17:44:14.155Z,16.80
2022-11-01T17:50:47.918Z,17.20
2022-11-01T17:57:30.026Z,17.00
2022-11-01T18:04:12.057Z,17.40
2022-11-01T18:09:54.806Z,17.10
2022-11-01T18:15:25.417Z,16.50
2022-11-01T18:21:21.689Z,17.90
2022-11-01T18:26:45.381Z,18.20
2022-11-01T18:32:25.844Z,20.00
2022-11-01T18:38:16.997Z,19.90
2022-11-01T18:43:39.537Z,17.00
2022-11-01T18:50:02.534Z,18.90
2022-11-01T19:27:17.219Z,18.80
2022-11-01T19:40:39.649Z,17.00
2022-11-01T19:48:23.888Z,18.80
2022-11-01T19:55:18.408Z,19.00
2022-11-01T20:02:15.671Z,19.20
2022-11-01T20:09:03.655Z,19.60
2022-11-01T20:15:30.643Z,19.40
2022-11-01T20:21:58.318Z,20.10
2022-11-01T20:28:02.805Z,17.30
2022-11-01T20:34:25.673Z,19.10
2022-11-01T20:40:50.211Z,18.80
2022-11-01T20:47:32.284Z,16.90
2022-11-01T20:54:17.961Z,16.30
2022-11-01T21:01:01.004Z,17.30
2022-11-01T21:07:46.946Z,18.30
2022-11-01T21:14:39.102Z,17.10
2022-11-01T21:21:33.279Z,19.10
2022-11-01T21:28:22.079Z,18.70
2022-11-01T21:35:06.358Z,20.30
2022-11-01T21:41:56.717Z,22.00
2022-11-01T22:02:08.286Z,19.20
2022-11-01T22:08:49.929Z,17.80
2022-11-01T22:14:48.310Z,19.30
2022-11-01T22:20:26.830Z,19.80
2022-11-01T22:26:29.307Z,18.10
2022-11-01T22:32:49.490Z,16.50
2022-11-01T22:39:14.369Z,17.40
2022-11-01T22:45:04.340Z,17.70
2022-11-01T22:59:29.356Z,19.00
2022-11-01T23:28:56.058Z,18.90
